sensor_id;sensor_type;location;lat;lon;timestamp;P1;durP1;ratioP1;P2;durP2;ratioP2
52015;SDS011;38032;53.326;6.472;2024-01-25T00:01:59;31.40;;;6.45;;
52015;SDS011;38032;53.326;6.472;2024-01-25T00:04:24;32.42;;;6.65;;
52015;SDS011;38032;53.326;6.472;2024-01-25T00:06:50;35.15;;;6.65;;
52015;SDS011;38032;53.326;6.472;2024-01-25T00:09:16;28.05;;;6.22;;
52015;SDS011;38032;53.326;6.472;2024-01-25T00:11:42;31.35;;;6.50;;
52015;SDS011;38032;53.326;6.472;2024-01-25T00:14:08;30.58;;;6.47;;
52015;SDS011;38032;53.326;6.472;2024-01-25T00:16:34;31.25;;;6.80;;
52015;SDS011;38032;53.326;6.472;2024-01-25T00:19:00;34.00;;;7.75;;
52015;SDS011;38032;53.326;6.472;2024-01-25T00:21:25;34.20;;;6.50;;
52015;SDS011;38032;53.326;6.472;2024-01-25T00:23:51;28.27;;;5.97;;
52015;SDS011;38032;53.326;6.472;2024-01-25T00:26:17;30.48;;;5.97;;
52015;SDS011;38032;53.326;6.472;2024-01-25T00:28:43;37.67;;;6.65;;
52015;SDS011;38032;53.326;6.472;2024-01-25T00:31:08;25.63;;;5.63;;
52015;SDS011;38032;53.326;6.472;2024-01-25T00:33:34;33.58;;;6.32;;
52015;SDS011;38032;53.326;6.472;2024-01-25T00:36:00;28.45;;;6.20;;
52015;SDS011;38032;53.326;6.472;2024-01-25T00:38:26;26.60;;;6.00;;
52015;SDS011;38032;53.326;6.472;2024-01-25T00:40:52;31.33;;;6.38;;
52015;SDS011;38032;53.326;6.472;2024-01-25T00:43:18;25.38;;;5.90;;
52015;SDS011;38032;53.326;6.472;2024-01-25T00:45:44;31.27;;;6.50;;
52015;SDS011;38032;53.326;6.472;2024-01-25T00:48:11;35.50;;;6.65;;
52015;SDS011;38032;53.326;6.472;2024-01-25T00:50:37;28.17;;;5.68;;
52015;SDS011;38032;53.326;6.472;2024-01-25T00:53:03;24.88;;;5.93;;
52015;SDS011;38032;53.326;6.472;2024-01-25T00:55:29;32.05;;;5.78;;
52015;SDS011;38032;53.326;6.472;2024-01-25T00:57:55;25.90;;;5.85;;
52015;SDS011;38032;53.326;6.472;2024-01-25T01:00:22;27.02;;;6.00;;
52015;SDS011;38032;53.326;6.472;2024-01-25T01:02:48;31.02;;;6.03;;
52015;SDS011;38032;53.326;6.472;2024-01-25T01:05:14;32.50;;;6.35;;
52015;SDS011;38032;53.326;6.472;2024-01-25T01:07:40;29.33;;;6.00;;
52015;SDS011;38032;53.326;6.472;2024-01-25T01:10:07;33.78;;;7.00;;
52015;SDS011;38032;53.326;6.472;2024-01-25T01:12:33;36.72;;;6.38;;
52015;SDS011;38032;53.326;6.472;2024-01-25T01:14:59;24.40;;;5.75;;
52015;SDS011;38032;53.326;6.472;2024-01-25T01:17:25;30.42;;;5.80;;
52015;SDS011;38032;53.326;6.472;2024-01-25T01:19:52;26.27;;;5.60;;
52015;SDS011;38032;53.326;6.472;2024-01-25T01:22:18;35.08;;;6.53;;
52015;SDS011;38032;53.326;6.472;2024-01-25T01:24:43;30.48;;;6.32;;
52015;SDS011;38032;53.326;6.472;2024-01-25T01:27:09;38.72;;;6.53;;
52015;SDS011;38032;53.326;6.472;2024-01-25T01:29:35;37.33;;;6.35;;
52015;SDS011;38032;53.326;6.472;2024-01-25T01:32:01;29.05;;;5.38;;
52015;SDS011;38032;53.326;6.472;2024-01-25T01:34:27;30.83;;;6.63;;
52015;SDS011;38032;53.326;6.472;2024-01-25T01:36:53;26.05;;;6.15;;
52015;SDS011;38032;53.326;6.472;2024-01-25T01:39:19;23.90;;;5.78;;
52015;SDS011;38032;53.326;6.472;2024-01-25T01:41:46;34.38;;;5.85;;
52015;SDS011;38032;53.326;6.472;2024-01-25T01:44:13;33.33;;;6.20;;
52015;SDS011;38032;53.326;6.472;2024-01-25T01:46:39;23.08;;;4.97;;
52015;SDS011;38032;53.326;6.472;2024-01-25T01:49:06;31.13;;;6.18;;
52015;SDS011;38032;53.326;6.472;2024-01-25T01:51:34;25.00;;;5.63;;
52015;SDS011;38032;53.326;6.472;2024-01-25T01:54:00;30.83;;;6.18;;
52015;SDS011;38032;53.326;6.472;2024-01-25T01:56:28;36.80;;;6.78;;
52015;SDS011;38032;53.326;6.472;2024-01-25T01:58:56;35.08;;;6.07;;
52015;SDS011;38032;53.326;6.472;2024-01-25T02:01:23;34.47;;;5.93;;
52015;SDS011;38032;53.326;6.472;2024-01-25T02:03:50;33.15;;;5.93;;
52015;SDS011;38032;53.326;6.472;2024-01-25T02:06:16;30.08;;;6.25;;
52015;SDS011;38032;53.326;6.472;2024-01-25T02:08:43;33.10;;;6.45;;
52015;SDS011;38032;53.326;6.472;2024-01-25T02:11:12;37.58;;;8.32;;
52015;SDS011;38032;53.326;6.472;2024-01-25T02:13:38;30.67;;;5.60;;
52015;SDS011;38032;53.326;6.472;2024-01-25T02:16:04;31.70;;;6.43;;
52015;SDS011;38032;53.326;6.472;2024-01-25T02:18:32;36.38;;;6.10;;
52015;SDS011;38032;53.326;6.472;2024-01-25T02:20:58;34.28;;;7.97;;
52015;SDS011;38032;53.326;6.472;2024-01-25T02:23:24;38.85;;;6.90;;
52015;SDS011;38032;53.326;6.472;2024-01-25T02:25:50;32.15;;;6.68;;
52015;SDS011;38032;53.326;6.472;2024-01-25T02:28:16;39.42;;;6.90;;
52015;SDS011;38032;53.326;6.472;2024-01-25T02:30:42;32.33;;;5.68;;
52015;SDS011;38032;53.326;6.472;2024-01-25T02:33:08;34.80;;;6.63;;
52015;SDS011;38032;53.326;6.472;2024-01-25T02:35:34;33.85;;;6.55;;
52015;SDS011;38032;53.326;6.472;2024-01-25T02:37:59;24.40;;;6.65;;
52015;SDS011;38032;53.326;6.472;2024-01-25T02:40:25;37.85;;;6.50;;
52015;SDS011;38032;53.326;6.472;2024-01-25T02:42:51;36.08;;;6.43;;
52015;SDS011;38032;53.326;6.472;2024-01-25T02:45:17;27.20;;;6.57;;
52015;SDS011;38032;53.326;6.472;2024-01-25T02:47:43;33.80;;;7.43;;
52015;SDS011;38032;53.326;6.472;2024-01-25T02:50:09;37.60;;;6.35;;
52015;SDS011;38032;53.326;6.472;2024-01-25T02:52:35;37.03;;;6.93;;
52015;SDS011;38032;53.326;6.472;2024-01-25T02:55:00;32.78;;;6.60;;
52015;SDS011;38032;53.326;6.472;2024-01-25T02:57:26;29.60;;;6.47;;
52015;SDS011;38032;53.326;6.472;2024-01-25T02:59:52;34.08;;;6.85;;
52015;SDS011;38032;53.326;6.472;2024-01-25T03:02:18;28.65;;;5.90;;
52015;SDS011;38032;53.326;6.472;2024-01-25T03:04:45;29.10;;;5.60;;
52015;SDS011;38032;53.326;6.472;2024-01-25T03:07:11;35.13;;;6.30;;
52015;SDS011;38032;53.326;6.472;2024-01-25T03:09:37;29.52;;;5.65;;
52015;SDS011;38032;53.326;6.472;2024-01-25T03:12:03;29.55;;;6.35;;
52015;SDS011;38032;53.326;6.472;2024-01-25T03:14:28;35.33;;;7.10;;
52015;SDS011;38032;53.326;6.472;2024-01-25T03:16:54;34.78;;;7.55;;
52015;SDS011;38032;53.326;6.472;2024-01-25T03:19:22;31.33;;;5.80;;
52015;SDS011;38032;53.326;6.472;2024-01-25T03:21:50;34.15;;;7.20;;
52015;SDS011;38032;53.326;6.472;2024-01-25T03:24:15;27.63;;;6.53;;
52015;SDS011;38032;53.326;6.472;2024-01-25T03:26:41;36.80;;;6.70;;
52015;SDS011;38032;53.326;6.472;2024-01-25T03:29:07;34.92;;;6.75;;
52015;SDS011;38032;53.326;6.472;2024-01-25T03:31:33;35.17;;;6.60;;
52015;SDS011;38032;53.326;6.472;2024-01-25T03:34:01;34.53;;;6.63;;
52015;SDS011;38032;53.326;6.472;2024-01-25T03:36:27;31.60;;;6.47;;
52015;SDS011;38032;53.326;6.472;2024-01-25T03:38:53;26.73;;;5.93;;
52015;SDS011;38032;53.326;6.472;2024-01-25T03:41:19;34.63;;;6.70;;
52015;SDS011;38032;53.326;6.472;2024-01-25T03:43:45;39.05;;;7.43;;
52015;SDS011;38032;53.326;6.472;2024-01-25T03:46:11;34.55;;;6.50;;
52015;SDS011;38032;53.326;6.472;2024-01-25T03:48:37;40.85;;;6.93;;
52015;SDS011;38032;53.326;6.472;2024-01-25T03:51:03;37.33;;;7.10;;
52015;SDS011;38032;53.326;6.472;2024-01-25T03:53:29;30.05;;;6.45;;
52015;SDS011;38032;53.326;6.472;2024-01-25T03:55:55;37.50;;;7.05;;
52015;SDS011;38032;53.326;6.472;2024-01-25T03:58:21;37.88;;;6.93;;
52015;SDS011;38032;53.326;6.472;2024-01-25T04:00:47;35.55;;;6.07;;
52015;SDS011;38032;53.326;6.472;2024-01-25T04:03:13;27.98;;;7.28;;
52015;SDS011;38032;53.326;6.472;2024-01-25T04:05:39;39.97;;;6.50;;
52015;SDS011;38032;53.326;6.472;2024-01-25T04:08:05;32.70;;;7.32;;
52015;SDS011;38032;53.326;6.472;2024-01-25T04:10:31;34.42;;;6.68;;
52015;SDS011;38032;53.326;6.472;2024-01-25T04:12:57;28.90;;;6.28;;
52015;SDS011;38032;53.326;6.472;2024-01-25T04:15:25;35.35;;;6.03;;
52015;SDS011;38032;53.326;6.472;2024-01-25T04:17:51;32.95;;;6.22;;
52015;SDS011;38032;53.326;6.472;2024-01-25T04:20:18;31.90;;;6.90;;
52015;SDS011;38032;53.326;6.472;2024-01-25T04:22:44;34.50;;;6.25;;
52015;SDS011;38032;53.326;6.472;2024-01-25T04:25:10;41.17;;;6.47;;
52015;SDS011;38032;53.326;6.472;2024-01-25T04:27:37;35.90;;;6.35;;
52015;SDS011;38032;53.326;6.472;2024-01-25T04:30:04;31.98;;;6.40;;
52015;SDS011;38032;53.326;6.472;2024-01-25T04:32:31;32.30;;;6.28;;
52015;SDS011;38032;53.326;6.472;2024-01-25T04:34:56;36.22;;;5.53;;
52015;SDS011;38032;53.326;6.472;2024-01-25T04:37:22;42.20;;;6.75;;
52015;SDS011;38032;53.326;6.472;2024-01-25T04:39:48;36.35;;;6.43;;
52015;SDS011;38032;53.326;6.472;2024-01-25T04:42:14;28.48;;;5.57;;
52015;SDS011;38032;53.326;6.472;2024-01-25T04:44:39;33.60;;;6.45;;
52015;SDS011;38032;53.326;6.472;2024-01-25T04:47:05;31.15;;;5.65;;
52015;SDS011;38032;53.326;6.472;2024-01-25T04:49:31;37.63;;;6.20;;
52015;SDS011;38032;53.326;6.472;2024-01-25T04:51:57;39.63;;;7.15;;
52015;SDS011;38032;53.326;6.472;2024-01-25T04:54:23;33.55;;;5.68;;
52015;SDS011;38032;53.326;6.472;2024-01-25T04:56:48;29.58;;;5.90;;
52015;SDS011;38032;53.326;6.472;2024-01-25T04:59:14;28.52;;;6.18;;
52015;SDS011;38032;53.326;6.472;2024-01-25T05:01:40;29.02;;;5.93;;
52015;SDS011;38032;53.326;6.472;2024-01-25T05:04:06;35.38;;;6.53;;
52015;SDS011;38032;53.326;6.472;2024-01-25T05:06:32;27.40;;;6.43;;
52015;SDS011;38032;53.326;6.472;2024-01-25T05:08:58;32.95;;;6.30;;
52015;SDS011;38032;53.326;6.472;2024-01-25T05:11:23;29.85;;;5.55;;
52015;SDS011;38032;53.326;6.472;2024-01-25T05:13:49;31.27;;;6.43;;
52015;SDS011;38032;53.326;6.472;2024-01-25T05:16:15;41.75;;;6.63;;
52015;SDS011;38032;53.326;6.472;2024-01-25T05:18:41;30.17;;;6.25;;
52015;SDS011;38032;53.326;6.472;2024-01-25T05:21:07;32.63;;;6.22;;
52015;SDS011;38032;53.326;6.472;2024-01-25T05:23:32;31.90;;;6.43;;
52015;SDS011;38032;53.326;6.472;2024-01-25T05:25:58;31.00;;;5.78;;
52015;SDS011;38032;53.326;6.472;2024-01-25T05:28:24;33.70;;;6.20;;
52015;SDS011;38032;53.326;6.472;2024-01-25T05:30:50;35.05;;;6.25;;
52015;SDS011;38032;53.326;6.472;2024-01-25T05:33:16;38.70;;;6.80;;
52015;SDS011;38032;53.326;6.472;2024-01-25T05:35:42;34.95;;;6.53;;
52015;SDS011;38032;53.326;6.472;2024-01-25T05:38:07;31.83;;;5.90;;
52015;SDS011;38032;53.326;6.472;2024-01-25T05:40:33;32.53;;;7.25;;
52015;SDS011;38032;53.326;6.472;2024-01-25T05:42:59;33.45;;;6.63;;
52015;SDS011;38032;53.326;6.472;2024-01-25T05:45:25;32.60;;;6.32;;
52015;SDS011;38032;53.326;6.472;2024-01-25T05:47:51;28.17;;;6.65;;
52015;SDS011;38032;53.326;6.472;2024-01-25T05:50:17;30.50;;;7.05;;
52015;SDS011;38032;53.326;6.472;2024-01-25T05:52:43;27.13;;;5.45;;
52015;SDS011;38032;53.326;6.472;2024-01-25T05:55:09;35.97;;;7.05;;
52015;SDS011;38032;53.326;6.472;2024-01-25T05:57:35;35.85;;;6.32;;
52015;SDS011;38032;53.326;6.472;2024-01-25T06:00:02;33.13;;;5.82;;
52015;SDS011;38032;53.326;6.472;2024-01-25T06:02:30;33.97;;;5.90;;
52015;SDS011;38032;53.326;6.472;2024-01-25T06:04:56;27.55;;;6.85;;
52015;SDS011;38032;53.326;6.472;2024-01-25T06:07:24;26.83;;;6.00;;
52015;SDS011;38032;53.326;6.472;2024-01-25T06:09:51;26.40;;;5.65;;
52015;SDS011;38032;53.326;6.472;2024-01-25T06:12:16;30.58;;;6.13;;
52015;SDS011;38032;53.326;6.472;2024-01-25T06:14:42;39.47;;;6.32;;
52015;SDS011;38032;53.326;6.472;2024-01-25T06:17:08;30.17;;;5.40;;
52015;SDS011;38032;53.326;6.472;2024-01-25T06:19:34;36.47;;;5.53;;
52015;SDS011;38032;53.326;6.472;2024-01-25T06:22:00;30.58;;;6.63;;
52015;SDS011;38032;53.326;6.472;2024-01-25T06:24:26;38.10;;;6.70;;
52015;SDS011;38032;53.326;6.472;2024-01-25T06:26:53;31.00;;;5.90;;
52015;SDS011;38032;53.326;6.472;2024-01-25T06:29:19;41.40;;;7.10;;
52015;SDS011;38032;53.326;6.472;2024-01-25T06:31:45;32.65;;;6.60;;
52015;SDS011;38032;53.326;6.472;2024-01-25T06:34:11;36.10;;;6.45;;
52015;SDS011;38032;53.326;6.472;2024-01-25T06:36:37;35.08;;;6.68;;
52015;SDS011;38032;53.326;6.472;2024-01-25T06:39:03;33.80;;;5.45;;
52015;SDS011;38032;53.326;6.472;2024-01-25T06:41:30;29.27;;;6.35;;
52015;SDS011;38032;53.326;6.472;2024-01-25T06:43:56;25.75;;;5.65;;
52015;SDS011;38032;53.326;6.472;2024-01-25T06:46:22;32.30;;;5.70;;
52015;SDS011;38032;53.326;6.472;2024-01-25T06:48:49;29.77;;;5.88;;
52015;SDS011;38032;53.326;6.472;2024-01-25T06:51:15;37.30;;;7.32;;
52015;SDS011;38032;53.326;6.472;2024-01-25T06:53:41;37.95;;;6.75;;
52015;SDS011;38032;53.326;6.472;2024-01-25T06:56:07;33.78;;;5.70;;
52015;SDS011;38032;53.326;6.472;2024-01-25T06:58:33;29.65;;;6.00;;
52015;SDS011;38032;53.326;6.472;2024-01-25T07:00:59;36.40;;;6.00;;
52015;SDS011;38032;53.326;6.472;2024-01-25T07:03:25;36.03;;;7.05;;
52015;SDS011;38032;53.326;6.472;2024-01-25T07:05:51;32.97;;;6.68;;
52015;SDS011;38032;53.326;6.472;2024-01-25T07:08:17;28.35;;;6.35;;
52015;SDS011;38032;53.326;6.472;2024-01-25T07:10:44;34.35;;;6.00;;
52015;SDS011;38032;53.326;6.472;2024-01-25T07:13:10;34.42;;;7.70;;
52015;SDS011;38032;53.326;6.472;2024-01-25T07:15:36;26.10;;;6.05;;
52015;SDS011;38032;53.326;6.472;2024-01-25T07:18:02;28.27;;;5.80;;
52015;SDS011;38032;53.326;6.472;2024-01-25T07:20:28;25.98;;;5.80;;
52015;SDS011;38032;53.326;6.472;2024-01-25T07:22:54;33.28;;;6.45;;
52015;SDS011;38032;53.326;6.472;2024-01-25T07:25:20;34.78;;;7.05;;
52015;SDS011;38032;53.326;6.472;2024-01-25T07:27:46;36.13;;;6.55;;
52015;SDS011;38032;53.326;6.472;2024-01-25T07:30:12;32.20;;;6.57;;
52015;SDS011;38032;53.326;6.472;2024-01-25T07:32:39;38.88;;;6.32;;
52015;SDS011;38032;53.326;6.472;2024-01-25T07:35:07;31.45;;;6.13;;
52015;SDS011;38032;53.326;6.472;2024-01-25T07:37:35;28.80;;;5.40;;
52015;SDS011;38032;53.326;6.472;2024-01-25T07:40:01;34.28;;;6.40;;
52015;SDS011;38032;53.326;6.472;2024-01-25T07:42:33;31.75;;;6.55;;
52015;SDS011;38032;53.326;6.472;2024-01-25T07:44:59;40.85;;;6.72;;
52015;SDS011;38032;53.326;6.472;2024-01-25T07:47:25;36.90;;;6.25;;
52015;SDS011;38032;53.326;6.472;2024-01-25T07:49:51;32.30;;;6.60;;
52015;SDS011;38032;53.326;6.472;2024-01-25T07:52:16;29.55;;;7.07;;
52015;SDS011;38032;53.326;6.472;2024-01-25T07:54:43;31.48;;;6.43;;
52015;SDS011;38032;53.326;6.472;2024-01-25T07:57:09;35.17;;;6.38;;
52015;SDS011;38032;53.326;6.472;2024-01-25T07:59:35;32.97;;;6.18;;
52015;SDS011;38032;53.326;6.472;2024-01-25T08:02:01;33.88;;;6.10;;
52015;SDS011;38032;53.326;6.472;2024-01-25T08:04:27;39.40;;;7.57;;
52015;SDS011;38032;53.326;6.472;2024-01-25T08:06:53;32.38;;;6.30;;
52015;SDS011;38032;53.326;6.472;2024-01-25T08:09:19;28.85;;;6.15;;
52015;SDS011;38032;53.326;6.472;2024-01-25T08:11:45;39.78;;;6.65;;
52015;SDS011;38032;53.326;6.472;2024-01-25T08:14:11;36.35;;;6.38;;
52015;SDS011;38032;53.326;6.472;2024-01-25T08:16:37;34.92;;;6.47;;
52015;SDS011;38032;53.326;6.472;2024-01-25T08:19:02;33.65;;;6.70;;
52015;SDS011;38032;53.326;6.472;2024-01-25T08:21:29;34.63;;;6.63;;
52015;SDS011;38032;53.326;6.472;2024-01-25T08:23:55;33.63;;;6.97;;
52015;SDS011;38032;53.326;6.472;2024-01-25T08:26:21;32.13;;;6.55;;
52015;SDS011;38032;53.326;6.472;2024-01-25T08:28:47;38.78;;;7.82;;
52015;SDS011;38032;53.326;6.472;2024-01-25T08:31:13;38.42;;;7.40;;
52015;SDS011;38032;53.326;6.472;2024-01-25T08:33:39;37.17;;;7.75;;
52015;SDS011;38032;53.326;6.472;2024-01-25T08:36:09;37.85;;;6.82;;
52015;SDS011;38032;53.326;6.472;2024-01-25T08:38:35;31.40;;;7.78;;
52015;SDS011;38032;53.326;6.472;2024-01-25T08:41:01;41.30;;;7.93;;
52015;SDS011;38032;53.326;6.472;2024-01-25T08:43:27;38.13;;;7.55;;
52015;SDS011;38032;53.326;6.472;2024-01-25T08:45:52;30.10;;;6.40;;
52015;SDS011;38032;53.326;6.472;2024-01-25T08:48:19;38.45;;;6.88;;
52015;SDS011;38032;53.326;6.472;2024-01-25T08:50:44;41.38;;;8.30;;
52015;SDS011;38032;53.326;6.472;2024-01-25T08:53:10;36.47;;;6.50;;
52015;SDS011;38032;53.326;6.472;2024-01-25T08:55:36;36.85;;;6.93;;
52015;SDS011;38032;53.326;6.472;2024-01-25T08:58:02;32.38;;;6.90;;
52015;SDS011;38032;53.326;6.472;2024-01-25T09:00:28;40.13;;;7.18;;
52015;SDS011;38032;53.326;6.472;2024-01-25T09:02:54;37.25;;;7.72;;
52015;SDS011;38032;53.326;6.472;2024-01-25T09:05:19;28.80;;;6.60;;
52015;SDS011;38032;53.326;6.472;2024-01-25T09:07:45;28.15;;;6.43;;
52015;SDS011;38032;53.326;6.472;2024-01-25T09:10:12;33.70;;;7.13;;
52015;SDS011;38032;53.326;6.472;2024-01-25T09:12:38;29.98;;;5.75;;
52015;SDS011;38032;53.326;6.472;2024-01-25T09:15:07;33.50;;;7.47;;
52015;SDS011;38032;53.326;6.472;2024-01-25T09:17:33;32.58;;;6.43;;
52015;SDS011;38032;53.326;6.472;2024-01-25T09:19:59;34.45;;;7.95;;
52015;SDS011;38032;53.326;6.472;2024-01-25T09:22:25;29.33;;;7.50;;
52015;SDS011;38032;53.326;6.472;2024-01-25T09:24:51;31.30;;;7.20;;
52015;SDS011;38032;53.326;6.472;2024-01-25T09:27:17;35.97;;;7.32;;
52015;SDS011;38032;53.326;6.472;2024-01-25T09:29:43;32.20;;;6.80;;
52015;SDS011;38032;53.326;6.472;2024-01-25T09:32:10;31.27;;;6.97;;
52015;SDS011;38032;53.326;6.472;2024-01-25T09:34:36;26.27;;;6.28;;
52015;SDS011;38032;53.326;6.472;2024-01-25T09:37:03;28.25;;;6.80;;
52015;SDS011;38032;53.326;6.472;2024-01-25T09:39:30;25.52;;;6.07;;
52015;SDS011;38032;53.326;6.472;2024-01-25T09:41:56;29.05;;;6.75;;
52015;SDS011;38032;53.326;6.472;2024-01-25T09:44:23;37.33;;;6.82;;
52015;SDS011;38032;53.326;6.472;2024-01-25T09:46:50;26.27;;;6.60;;
52015;SDS011;38032;53.326;6.472;2024-01-25T09:49:17;26.45;;;6.45;;
52015;SDS011;38032;53.326;6.472;2024-01-25T09:51:43;27.70;;;6.15;;
52015;SDS011;38032;53.326;6.472;2024-01-25T09:54:10;28.40;;;6.78;;
52015;SDS011;38032;53.326;6.472;2024-01-25T09:56:36;24.27;;;6.35;;
52015;SDS011;38032;53.326;6.472;2024-01-25T09:59:04;27.25;;;6.60;;
52015;SDS011;38032;53.326;6.472;2024-01-25T10:01:30;32.58;;;7.13;;
52015;SDS011;38032;53.326;6.472;2024-01-25T10:03:56;26.77;;;7.28;;
52015;SDS011;38032;53.326;6.472;2024-01-25T10:06:22;32.53;;;7.13;;
52015;SDS011;38032;53.326;6.472;2024-01-25T10:08:48;30.92;;;6.40;;
52015;SDS011;38032;53.326;6.472;2024-01-25T10:11:14;26.30;;;6.85;;
52015;SDS011;38032;53.326;6.472;2024-01-25T10:13:41;24.63;;;7.25;;
52015;SDS011;38032;53.326;6.472;2024-01-25T10:16:15;28.63;;;6.82;;
52015;SDS011;38032;53.326;6.472;2024-01-25T10:18:42;30.25;;;7.38;;
52015;SDS011;38032;53.326;6.472;2024-01-25T10:21:09;24.33;;;5.93;;
52015;SDS011;38032;53.326;6.472;2024-01-25T10:23:36;26.52;;;6.57;;
52015;SDS011;38032;53.326;6.472;2024-01-25T10:26:02;28.38;;;7.03;;
52015;SDS011;38032;53.326;6.472;2024-01-25T10:28:28;21.95;;;6.28;;
52015;SDS011;38032;53.326;6.472;2024-01-25T10:30:59;26.70;;;6.30;;
52015;SDS011;38032;53.326;6.472;2024-01-25T10:33:29;25.90;;;6.68;;
52015;SDS011;38032;53.326;6.472;2024-01-25T10:35:56;28.15;;;6.43;;
52015;SDS011;38032;53.326;6.472;2024-01-25T10:38:29;30.67;;;6.85;;
52015;SDS011;38032;53.326;6.472;2024-01-25T10:40:59;27.98;;;6.72;;
52015;SDS011;38032;53.326;6.472;2024-01-25T10:43:26;22.20;;;6.70;;
52015;SDS011;38032;53.326;6.472;2024-01-25T10:45:53;29.05;;;7.75;;
52015;SDS011;38032;53.326;6.472;2024-01-25T10:48:22;28.70;;;6.88;;
52015;SDS011;38032;53.326;6.472;2024-01-25T10:50:49;27.67;;;6.68;;
52015;SDS011;38032;53.326;6.472;2024-01-25T10:53:15;26.83;;;6.63;;
52015;SDS011;38032;53.326;6.472;2024-01-25T10:55:43;29.55;;;7.18;;
52015;SDS011;38032;53.326;6.472;2024-01-25T10:58:12;24.63;;;6.63;;
52015;SDS011;38032;53.326;6.472;2024-01-25T11:00:38;28.08;;;6.68;;
52015;SDS011;38032;53.326;6.472;2024-01-25T11:03:05;25.33;;;6.93;;
52015;SDS011;38032;53.326;6.472;2024-01-25T11:05:32;24.35;;;6.35;;
52015;SDS011;38032;53.326;6.472;2024-01-25T11:07:58;21.52;;;6.68;;
52015;SDS011;38032;53.326;6.472;2024-01-25T11:10:26;26.63;;;6.53;;
52015;SDS011;38032;53.326;6.472;2024-01-25T11:13:00;25.98;;;7.25;;
52015;SDS011;38032;53.326;6.472;2024-01-25T11:15:30;23.33;;;6.45;;
52015;SDS011;38032;53.326;6.472;2024-01-25T11:17:57;25.63;;;6.38;;
52015;SDS011;38032;53.326;6.472;2024-01-25T11:20:24;28.42;;;6.38;;
52015;SDS011;38032;53.326;6.472;2024-01-25T11:22:59;25.92;;;6.65;;
52015;SDS011;38032;53.326;6.472;2024-01-25T11:25:29;33.17;;;7.40;;
52015;SDS011;38032;53.326;6.472;2024-01-25T11:27:57;30.90;;;7.70;;
52015;SDS011;38032;53.326;6.472;2024-01-25T11:30:23;27.20;;;6.97;;
52015;SDS011;38032;53.326;6.472;2024-01-25T11:32:50;24.17;;;7.00;;
52015;SDS011;38032;53.326;6.472;2024-01-25T11:35:16;27.48;;;7.10;;
52015;SDS011;38032;53.326;6.472;2024-01-25T11:37:44;27.30;;;7.10;;
52015;SDS011;38032;53.326;6.472;2024-01-25T11:40:12;22.40;;;6.18;;
52015;SDS011;38032;53.326;6.472;2024-01-25T11:42:39;28.13;;;6.13;;
52015;SDS011;38032;53.326;6.472;2024-01-25T11:45:05;21.38;;;6.13;;
52015;SDS011;38032;53.326;6.472;2024-01-25T11:47:35;24.73;;;6.97;;
52015;SDS011;38032;53.326;6.472;2024-01-25T11:50:01;20.92;;;6.25;;
52015;SDS011;38032;53.326;6.472;2024-01-25T11:52:28;21.25;;;6.63;;
52015;SDS011;38032;53.326;6.472;2024-01-25T11:54:54;24.65;;;6.75;;
52015;SDS011;38032;53.326;6.472;2024-01-25T11:57:20;29.65;;;6.97;;
52015;SDS011;38032;53.326;6.472;2024-01-25T11:59:46;27.83;;;6.50;;
52015;SDS011;38032;53.326;6.472;2024-01-25T12:02:13;23.33;;;6.10;;
52015;SDS011;38032;53.326;6.472;2024-01-25T12:04:39;22.38;;;6.13;;
52015;SDS011;38032;53.326;6.472;2024-01-25T12:07:05;29.50;;;6.22;;
52015;SDS011;38032;53.326;6.472;2024-01-25T12:09:32;25.05;;;6.47;;
52015;SDS011;38032;53.326;6.472;2024-01-25T12:11:59;29.73;;;7.03;;
52015;SDS011;38032;53.326;6.472;2024-01-25T12:14:26;25.23;;;6.72;;
52015;SDS011;38032;53.326;6.472;2024-01-25T12:16:55;24.90;;;6.75;;
52015;SDS011;38032;53.326;6.472;2024-01-25T12:19:21;32.03;;;7.35;;
52015;SDS011;38032;53.326;6.472;2024-01-25T12:21:47;24.92;;;6.38;;
52015;SDS011;38032;53.326;6.472;2024-01-25T12:24:13;23.88;;;5.68;;
52015;SDS011;38032;53.326;6.472;2024-01-25T12:26:41;27.05;;;6.82;;
52015;SDS011;38032;53.326;6.472;2024-01-25T12:29:07;25.98;;;5.82;;
52015;SDS011;38032;53.326;6.472;2024-01-25T12:31:35;23.90;;;5.95;;
52015;SDS011;38032;53.326;6.472;2024-01-25T12:34:01;23.15;;;6.43;;
52015;SDS011;38032;53.326;6.472;2024-01-25T12:36:27;24.35;;;6.22;;
52015;SDS011;38032;53.326;6.472;2024-01-25T12:38:53;23.55;;;5.25;;
52015;SDS011;38032;53.326;6.472;2024-01-25T12:41:19;22.38;;;5.93;;
52015;SDS011;38032;53.326;6.472;2024-01-25T12:43:45;21.58;;;4.95;;
52015;SDS011;38032;53.326;6.472;2024-01-25T12:46:11;27.25;;;6.18;;
52015;SDS011;38032;53.326;6.472;2024-01-25T12:48:37;20.75;;;5.43;;
52015;SDS011;38032;53.326;6.472;2024-01-25T12:51:03;21.88;;;6.13;;
52015;SDS011;38032;53.326;6.472;2024-01-25T12:53:29;26.02;;;6.18;;
52015;SDS011;38032;53.326;6.472;2024-01-25T12:55:54;27.95;;;5.68;;
52015;SDS011;38032;53.326;6.472;2024-01-25T12:58:20;23.50;;;5.57;;
52015;SDS011;38032;53.326;6.472;2024-01-25T13:00:46;21.63;;;5.80;;
52015;SDS011;38032;53.326;6.472;2024-01-25T13:03:12;18.10;;;5.00;;
52015;SDS011;38032;53.326;6.472;2024-01-25T13:05:38;27.10;;;6.15;;
52015;SDS011;38032;53.326;6.472;2024-01-25T13:08:05;24.90;;;5.78;;
52015;SDS011;38032;53.326;6.472;2024-01-25T13:10:31;24.60;;;5.88;;
52015;SDS011;38032;53.326;6.472;2024-01-25T13:12:57;25.08;;;5.00;;
52015;SDS011;38032;53.326;6.472;2024-01-25T13:15:23;23.17;;;5.68;;
52015;SDS011;38032;53.326;6.472;2024-01-25T13:17:49;19.80;;;5.43;;
52015;SDS011;38032;53.326;6.472;2024-01-25T13:20:15;18.35;;;6.10;;
52015;SDS011;38032;53.326;6.472;2024-01-25T13:22:41;19.42;;;4.93;;
52015;SDS011;38032;53.326;6.472;2024-01-25T13:25:07;24.42;;;6.78;;
52015;SDS011;38032;53.326;6.472;2024-01-25T13:27:35;23.98;;;6.03;;
52015;SDS011;38032;53.326;6.472;2024-01-25T13:30:01;22.10;;;5.03;;
52015;SDS011;38032;53.326;6.472;2024-01-25T13:32:29;16.45;;;5.50;;
52015;SDS011;38032;53.326;6.472;2024-01-25T13:34:55;30.23;;;6.22;;
52015;SDS011;38032;53.326;6.472;2024-01-25T13:37:20;16.98;;;4.55;;
52015;SDS011;38032;53.326;6.472;2024-01-25T13:39:47;19.13;;;5.85;;
52015;SDS011;38032;53.326;6.472;2024-01-25T13:42:13;22.55;;;6.20;;
52015;SDS011;38032;53.326;6.472;2024-01-25T13:44:39;23.15;;;6.38;;
52015;SDS011;38032;53.326;6.472;2024-01-25T13:47:05;17.98;;;5.05;;
52015;SDS011;38032;53.326;6.472;2024-01-25T13:49:31;19.27;;;5.88;;
52015;SDS011;38032;53.326;6.472;2024-01-25T13:52:00;19.75;;;5.18;;
52015;SDS011;38032;53.326;6.472;2024-01-25T13:54:28;18.42;;;5.55;;
52015;SDS011;38032;53.326;6.472;2024-01-25T13:56:55;23.67;;;5.43;;
52015;SDS011;38032;53.326;6.472;2024-01-25T13:59:21;19.45;;;4.70;;
52015;SDS011;38032;53.326;6.472;2024-01-25T14:01:47;18.08;;;4.95;;
52015;SDS011;38032;53.326;6.472;2024-01-25T14:04:13;21.85;;;5.55;;
52015;SDS011;38032;53.326;6.472;2024-01-25T14:06:39;20.27;;;5.00;;
52015;SDS011;38032;53.326;6.472;2024-01-25T14:09:04;18.67;;;4.55;;
52015;SDS011;38032;53.326;6.472;2024-01-25T14:11:30;20.60;;;5.65;;
52015;SDS011;38032;53.326;6.472;2024-01-25T14:13:56;19.13;;;5.15;;
52015;SDS011;38032;53.326;6.472;2024-01-25T14:16:22;19.00;;;4.35;;
52015;SDS011;38032;53.326;6.472;2024-01-25T14:18:48;19.17;;;4.68;;
52015;SDS011;38032;53.326;6.472;2024-01-25T14:21:14;19.00;;;5.03;;
52015;SDS011;38032;53.326;6.472;2024-01-25T14:23:39;20.10;;;6.15;;
52015;SDS011;38032;53.326;6.472;2024-01-25T14:26:05;21.35;;;5.30;;
52015;SDS011;38032;53.326;6.472;2024-01-25T14:28:31;19.83;;;5.53;;